Time;durP1;ratioP1;P1;durP2;ratioP2;P2;SDS_P1;SDS_P2;PMS_P1;PMS_P2;Temp;Humidity;BMP_temperature;BMP_pressure;BME280_temperature;BME280_humidity;BME280_pressure;Samples;Min_cycle;Max_cycle;Signal;HPM_P1;HPM_P2
2023/11/24 00:00:51;;;;;;;10.87;3.20;;;;;;;;;;4926560;28;20259;-84
2023/11/24 00:03:19;;;;;;;10.07;2.60;;;;;;;;;;4928970;28;20301;-84
2023/11/24 00:05:49;;;;;;;9.53;2.97;;;;;;;;;;4926375;28;20355;-85
2023/11/24 00:08:21;;;;;;;6.67;2.37;;;;;;;;;;4954362;28;20720;-83
2023/11/24 00:10:51;;;;;;;7.80;2.83;;;;;;;;;;4936577;28;20327;-84
2023/11/24 00:13:18;;;;;;;13.33;3.33;;;;;;;;;;4921043;28;20227;-83
2023/11/24 00:15:48;;;;;;;10.67;3.30;;;;;;;;;;4923547;28;20255;-84
2023/11/24 00:18:16;;;;;;;13.47;3.07;;;;;;;;;;4928108;28;20238;-82
2023/11/24 00:20:42;;;;;;;17.53;3.83;;;;;;;;;;4927773;28;20233;-82
2023/11/24 00:23:10;;;;;;;15.47;3.27;;;;;;;;;;4924728;28;20226;-84
2023/11/24 00:25:37;;;;;;;14.23;3.13;;;;;;;;;;4928518;28;20228;-83
2023/11/24 00:28:04;;;;;;;18.83;3.30;;;;;;;;;;4941257;28;20227;-83
2023/11/24 00:30:30;;;;;;;15.73;3.63;;;;;;;;;;4943024;28;20230;-83
2023/11/24 00:32:55;;;;;;;14.77;3.77;;;;;;;;;;4939654;28;20222;-84
2023/11/24 00:35:21;;;;;;;15.67;3.50;;;;;;;;;;4927723;28;20252;-83
2023/11/24 00:37:46;;;;;;;17.83;3.73;;;;;;;;;;4928588;28;20362;-84
2023/11/24 00:40:13;;;;;;;15.47;3.47;;;;;;;;;;4937669;28;20240;-85
2023/11/24 00:42:40;;;;;;;14.20;3.73;;;;;;;;;;4927737;28;20226;-84
2023/11/24 00:45:09;;;;;;;12.43;3.33;;;;;;;;;;4932523;28;20253;-85
2023/11/24 00:47:37;;;;;;;14.07;3.10;;;;;;;;;;4928093;28;20289;-87
2023/11/24 00:50:05;;;;;;;12.27;3.33;;;;;;;;;;4952024;28;20298;-83
2023/11/24 00:52:33;;;;;;;10.63;3.33;;;;;;;;;;4938352;28;20269;-84
2023/11/24 00:54:59;;;;;;;10.27;3.17;;;;;;;;;;4939969;29;20231;-84
2023/11/24 00:57:24;;;;;;;10.73;2.73;;;;;;;;;;4967047;28;20226;-85
2023/11/24 00:59:50;;;;;;;11.67;3.27;;;;;;;;;;4918292;29;20237;-85
2023/11/24 01:02:16;;;;;;;10.93;3.40;;;;;;;;;;4926107;28;20214;-83
2023/11/24 01:04:42;;;;;;;12.10;3.53;;;;;;;;;;4922197;28;20260;-84
2023/11/24 01:07:07;;;;;;;9.40;2.80;;;;;;;;;;4923657;28;20214;-84
2023/11/24 01:09:33;;;;;;;8.57;2.97;;;;;;;;;;4926222;28;20214;-81
2023/11/24 01:11:58;;;;;;;13.70;2.77;;;;;;;;;;4926580;28;20707;-83
2023/11/24 01:14:27;;;;;;;16.50;3.37;;;;;;;;;;4935047;28;20227;-83
2023/11/24 01:16:57;;;;;;;7.57;3.00;;;;;;;;;;4927791;28;20242;-81
2023/11/24 01:19:23;;;;;;;6.27;2.93;;;;;;;;;;4925264;28;20589;-84
2023/11/24 01:21:54;;;;;;;12.63;3.63;;;;;;;;;;4940487;28;20226;-87
2023/11/24 01:24:22;;;;;;;12.87;3.10;;;;;;;;;;4906558;28;20787;-86
2023/11/24 01:26:54;;;;;;;11.20;3.40;;;;;;;;;;4916371;28;20237;-83
2023/11/24 01:29:20;;;;;;;9.57;3.30;;;;;;;;;;4918386;28;20225;-85
2023/11/24 01:31:46;;;;;;;11.87;2.97;;;;;;;;;;4939460;28;20230;-83
2023/11/24 01:34:14;;;;;;;8.30;2.70;;;;;;;;;;4934176;28;20229;-85
2023/11/24 01:36:42;;;;;;;7.00;3.13;;;;;;;;;;4934779;28;20226;-86
2023/11/24 01:39:10;;;;;;;12.03;3.00;;;;;;;;;;4945998;28;20214;-81
2023/11/24 01:41:38;;;;;;;13.80;3.00;;;;;;;;;;4938818;28;20236;-84
2023/11/24 01:44:04;;;;;;;11.70;2.90;;;;;;;;;;4933161;28;20313;-83
2023/11/24 01:46:30;;;;;;;14.27;3.50;;;;;;;;;;4961142;28;20214;-82
2023/11/24 01:48:57;;;;;;;11.57;3.40;;;;;;;;;;4927043;28;20784;-81
2023/11/24 01:51:23;;;;;;;11.50;3.37;;;;;;;;;;4927854;28;20252;-84
2023/11/24 01:53:49;;;;;;;12.20;3.23;;;;;;;;;;4925858;28;20881;-83
2023/11/24 01:56:14;;;;;;;11.47;2.87;;;;;;;;;;4932433;28;20226;-84
2023/11/24 01:58:45;;;;;;;9.37;3.20;;;;;;;;;;4933965;28;20676;-79
2023/11/24 02:01:10;;;;;;;10.00;3.20;;;;;;;;;;4918414;28;20281;-84
2023/11/24 02:03:36;;;;;;;13.03;3.23;;;;;;;;;;4923396;28;20230;-81
2023/11/24 02:06:02;;;;;;;16.17;3.47;;;;;;;;;;4910172;28;20222;-82
2023/11/24 02:08:27;;;;;;;12.00;3.70;;;;;;;;;;4936589;28;20614;-84
2023/11/24 02:10:53;;;;;;;13.70;3.27;;;;;;;;;;4937068;28;20214;-86
2023/11/24 02:13:27;;;;;;;19.50;3.47;;;;;;;;;;4927977;28;20257;-82
2023/11/24 02:15:55;;;;;;;17.60;3.70;;;;;;;;;;4933384;28;20229;-84
2023/11/24 02:18:23;;;;;;;14.93;4.00;;;;;;;;;;4943965;28;20210;-84
2023/11/24 02:20:51;;;;;;;12.23;3.70;;;;;;;;;;4957826;29;20222;-83
2023/11/24 02:23:16;;;;;;;16.90;4.20;;;;;;;;;;4922145;28;20276;-82
2023/11/24 02:25:42;;;;;;;15.67;3.80;;;;;;;;;;4934445;28;20214;-80
2023/11/24 02:28:08;;;;;;;16.33;3.97;;;;;;;;;;4936400;28;20229;-81
2023/11/24 02:30:36;;;;;;;18.73;4.27;;;;;;;;;;4929851;28;20218;-84
2023/11/24 02:33:01;;;;;;;21.67;4.17;;;;;;;;;;4944867;28;20234;-84
2023/11/24 02:35:31;;;;;;;23.60;4.17;;;;;;;;;;4945235;28;20222;-82
2023/11/24 02:37:59;;;;;;;12.70;3.43;;;;;;;;;;4924909;29;20704;-83
2023/11/24 02:40:25;;;;;;;11.77;3.80;;;;;;;;;;4942857;28;20221;-85
2023/11/24 02:42:55;;;;;;;17.03;3.97;;;;;;;;;;4931602;28;20234;-85
2023/11/24 02:45:21;;;;;;;13.97;3.77;;;;;;;;;;4926916;28;20797;-83
2023/11/24 02:47:49;;;;;;;19.73;4.23;;;;;;;;;;4930968;28;20222;-84
2023/11/24 02:50:15;;;;;;;16.57;4.20;;;;;;;;;;4951168;28;20888;-85
2023/11/24 02:52:40;;;;;;;15.60;3.90;;;;;;;;;;4946757;28;20222;-86
2023/11/24 02:55:06;;;;;;;18.57;4.10;;;;;;;;;;4916495;28;20226;-86
2023/11/24 02:57:34;;;;;;;12.63;3.80;;;;;;;;;;4962969;28;20213;-80
2023/11/24 03:00:05;;;;;;;18.80;4.13;;;;;;;;;;4962835;28;20281;-81
2023/11/24 03:02:31;;;;;;;15.33;3.60;;;;;;;;;;4952042;28;20206;-80
2023/11/24 03:04:59;;;;;;;17.00;3.40;;;;;;;;;;4952101;28;20233;-82
2023/11/24 03:07:24;;;;;;;14.30;4.40;;;;;;;;;;4949706;28;20222;-82
2023/11/24 03:09:52;;;;;;;15.50;3.27;;;;;;;;;;4948497;28;20235;-84
2023/11/24 03:12:22;;;;;;;16.33;3.57;;;;;;;;;;4989294;28;20217;-84
2023/11/24 03:14:48;;;;;;;15.03;3.87;;;;;;;;;;4933591;29;20215;-82
2023/11/24 03:17:18;;;;;;;12.10;2.93;;;;;;;;;;4932372;28;20258;-82
2023/11/24 03:19:46;;;;;;;10.50;3.00;;;;;;;;;;4948443;28;20225;-86
2023/11/24 03:22:12;;;;;;;15.83;3.07;;;;;;;;;;4948242;28;20240;-84
2023/11/24 03:24:38;;;;;;;14.73;3.00;;;;;;;;;;4931306;28;20334;-86
2023/11/24 03:27:10;;;;;;;14.90;3.07;;;;;;;;;;4944010;28;20215;-82
2023/11/24 03:29:36;;;;;;;9.53;2.43;;;;;;;;;;4943521;28;20960;-86
2023/11/24 03:32:02;;;;;;;10.23;2.80;;;;;;;;;;4935360;28;20309;-85
2023/11/24 03:34:29;;;;;;;12.90;2.73;;;;;;;;;;4929354;28;20234;-83
2023/11/24 03:36:55;;;;;;;8.70;2.33;;;;;;;;;;4945747;28;20225;-84
2023/11/24 03:39:23;;;;;;;11.57;2.60;;;;;;;;;;4921716;28;20617;-84
2023/11/24 03:41:53;;;;;;;10.60;3.33;;;;;;;;;;4963710;28;20221;-84
2023/11/24 03:44:19;;;;;;;9.60;3.03;;;;;;;;;;4943056;28;20234;-85
2023/11/24 03:46:46;;;;;;;11.77;2.80;;;;;;;;;;4923592;29;20684;-83
2023/11/24 03:49:12;;;;;;;12.60;2.87;;;;;;;;;;4975078;28;20242;-84
2023/11/24 03:51:41;;;;;;;12.07;2.77;;;;;;;;;;4929901;28;20214;-85
2023/11/24 03:54:07;;;;;;;11.17;2.63;;;;;;;;;;4927419;28;20214;-81
2023/11/24 03:56:33;;;;;;;13.70;3.10;;;;;;;;;;4939610;28;20224;-82
2023/11/24 04:02:48;;;;;;;12.13;2.57;;;;;;;;;;4971803;28;20229;-83
2023/11/24 04:05:14;;;;;;;9.33;2.70;;;;;;;;;;4933758;28;20225;-83
2023/11/24 04:07:41;;;;;;;10.87;2.73;;;;;;;;;;4947748;28;20214;-84
2023/11/24 04:10:10;;;;;;;7.77;2.57;;;;;;;;;;4929216;28;20658;-85
2023/11/24 04:12:36;;;;;;;17.03;3.17;;;;;;;;;;4943572;28;20231;-83
2023/11/24 04:15:07;;;;;;;10.97;2.73;;;;;;;;;;4937821;28;20877;-82
2023/11/24 04:17:35;;;;;;;9.00;2.90;;;;;;;;;;4944882;28;20620;-83
2023/11/24 04:20:04;;;;;;;17.43;3.10;;;;;;;;;;4929162;28;20206;-83
2023/11/24 04:22:30;;;;;;;14.53;2.97;;;;;;;;;;4938588;28;20206;-83
2023/11/24 04:24:55;;;;;;;9.27;2.60;;;;;;;;;;4930928;29;20274;-86
2023/11/24 04:27:24;;;;;;;10.33;2.70;;;;;;;;;;4952751;28;20241;-80
2023/11/24 04:29:50;;;;;;;10.23;2.70;;;;;;;;;;4941410;28;20218;-86
2023/11/24 04:32:20;;;;;;;5.87;2.20;;;;;;;;;;4926124;28;20229;-83
2023/11/24 04:34:48;;;;;;;7.33;2.13;;;;;;;;;;4943347;28;20226;-84
2023/11/24 04:37:14;;;;;;;10.80;2.40;;;;;;;;;;4937704;28;20237;-84
2023/11/24 04:39:40;;;;;;;9.73;2.20;;;;;;;;;;4926821;28;20282;-85
2023/11/24 04:42:09;;;;;;;7.70;2.40;;;;;;;;;;4932850;28;20218;-84
2023/11/24 04:44:35;;;;;;;8.03;2.20;;;;;;;;;;4941656;28;20310;-86
2023/11/24 04:47:00;;;;;;;12.03;2.37;;;;;;;;;;4926508;28;20222;-83
2023/11/24 04:49:26;;;;;;;6.83;1.93;;;;;;;;;;4920612;28;20588;-83
2023/11/24 04:51:52;;;;;;;8.33;2.43;;;;;;;;;;4915766;28;20215;-84
2023/11/24 04:54:17;;;;;;;9.30;2.50;;;;;;;;;;4947612;28;20236;-79
2023/11/24 04:56:43;;;;;;;10.17;2.50;;;;;;;;;;4922216;28;20226;-78
2023/11/24 04:59:08;;;;;;;14.07;2.63;;;;;;;;;;4924361;28;20214;-80
2023/11/24 05:01:36;;;;;;;11.07;2.50;;;;;;;;;;4935476;28;20770;-81
2023/11/24 05:04:02;;;;;;;8.77;2.40;;;;;;;;;;4938929;28;20222;-80
2023/11/24 05:06:27;;;;;;;7.80;2.57;;;;;;;;;;4921478;28;20336;-76
2023/11/24 05:08:53;;;;;;;10.70;4.00;;;;;;;;;;4917551;28;20210;-79
2023/11/24 05:11:19;;;;;;;9.60;2.30;;;;;;;;;;4951422;28;20215;-80
2023/11/24 05:13:48;;;;;;;7.13;2.00;;;;;;;;;;4942755;28;20214;-80
2023/11/24 05:16:16;;;;;;;4.97;2.00;;;;;;;;;;4936838;28;20223;-81
2023/11/24 05:18:42;;;;;;;7.90;1.83;;;;;;;;;;4933766;28;20710;-80
2023/11/24 05:21:07;;;;;;;8.47;2.20;;;;;;;;;;4934050;28;20219;-81
2023/11/24 05:23:34;;;;;;;10.00;2.23;;;;;;;;;;4935724;28;20234;-79
2023/11/24 05:26:01;;;;;;;12.90;2.50;;;;;;;;;;4956706;28;20231;-80
2023/11/24 05:28:29;;;;;;;9.53;2.37;;;;;;;;;;4928995;28;20306;-81
2023/11/24 05:30:55;;;;;;;5.87;1.80;;;;;;;;;;4935438;28;20232;-80
2023/11/24 05:33:20;;;;;;;8.13;2.20;;;;;;;;;;4926164;28;20227;-80
2023/11/24 05:35:46;;;;;;;7.50;1.70;;;;;;;;;;4936184;28;20229;-83
2023/11/24 05:38:12;;;;;;;7.27;1.80;;;;;;;;;;4926038;28;20342;-80
2023/11/24 05:40:37;;;;;;;5.33;1.70;;;;;;;;;;4928602;28;20584;-79
2023/11/24 05:43:03;;;;;;;6.27;2.13;;;;;;;;;;4952332;28;20236;-82
2023/11/24 05:45:30;;;;;;;9.17;1.93;;;;;;;;;;4924920;28;20314;-80
2023/11/24 05:47:56;;;;;;;7.83;1.90;;;;;;;;;;4941695;28;20218;-81
2023/11/24 05:50:25;;;;;;;8.00;1.30;;;;;;;;;;4935278;28;20734;-79
2023/11/24 05:52:50;;;;;;;6.20;1.30;;;;;;;;;;4934974;28;20579;-80
2023/11/24 05:55:16;;;;;;;7.73;1.50;;;;;;;;;;4950884;28;20222;-79
2023/11/24 05:57:42;;;;;;;11.77;2.00;;;;;;;;;;4934744;28;20242;-80
2023/11/24 06:00:09;;;;;;;6.20;1.33;;;;;;;;;;4919572;28;20225;-77
2023/11/24 06:02:37;;;;;;;6.43;1.63;;;;;;;;;;4932860;28;20321;-81
2023/11/24 06:05:03;;;;;;;5.13;1.20;;;;;;;;;;4923849;28;20420;-80
2023/11/24 06:07:28;;;;;;;5.27;1.40;;;;;;;;;;4922697;28;20307;-81
2023/11/24 06:09:54;;;;;;;4.83;1.17;;;;;;;;;;4937832;28;20701;-80
2023/11/24 06:12:20;;;;;;;4.03;1.40;;;;;;;;;;4920341;28;20233;-81
2023/11/24 06:14:45;;;;;;;5.50;1.43;;;;;;;;;;4931210;28;20326;-81
2023/11/24 06:17:11;;;;;;;7.70;1.73;;;;;;;;;;4957689;28;20242;-80
2023/11/24 06:19:37;;;;;;;4.40;1.37;;;;;;;;;;4950302;28;20237;-81
2023/11/24 06:22:02;;;;;;;6.33;1.60;;;;;;;;;;4925973;28;20222;-80
2023/11/24 06:24:28;;;;;;;6.37;1.37;;;;;;;;;;4908226;28;20234;-80
2023/11/24 06:26:59;;;;;;;4.33;1.30;;;;;;;;;;4906613;28;20226;-78
2023/11/24 06:29:24;;;;;;;5.97;1.57;;;;;;;;;;4949921;28;20708;-79
2023/11/24 06:31:50;;;;;;;4.17;1.40;;;;;;;;;;4936919;28;20237;-79
2023/11/24 06:34:18;;;;;;;5.47;1.60;;;;;;;;;;4951256;28;20230;-80
2023/11/24 06:36:46;;;;;;;7.70;1.80;;;;;;;;;;4923918;28;20253;-80
2023/11/24 06:39:11;;;;;;;5.43;1.50;;;;;;;;;;4938308;28;20230;-80
2023/11/24 06:41:37;;;;;;;7.70;1.87;;;;;;;;;;4933941;28;20222;-81
2023/11/24 06:44:07;;;;;;;3.67;1.23;;;;;;;;;;4904189;28;20755;-79
2023/11/24 06:46:33;;;;;;;3.13;1.23;;;;;;;;;;4919091;28;20227;-81
2023/11/24 06:48:59;;;;;;;4.50;1.20;;;;;;;;;;4941277;28;20222;-81
2023/11/24 06:51:28;;;;;;;4.60;1.50;;;;;;;;;;4923866;28;20538;-80
2023/11/24 06:53:54;;;;;;;9.37;1.63;;;;;;;;;;4934629;28;20293;-81
2023/11/24 06:56:22;;;;;;;5.90;1.80;;;;;;;;;;4930606;28;20290;-81
2023/11/24 06:58:48;;;;;;;9.20;1.83;;;;;;;;;;4961216;28;20267;-80
2023/11/24 07:01:16;;;;;;;5.23;1.37;;;;;;;;;;4930490;28;20219;-80
2023/11/24 07:03:41;;;;;;;5.20;1.53;;;;;;;;;;4923045;28;20708;-80
2023/11/24 07:06:07;;;;;;;8.13;1.83;;;;;;;;;;4960830;28;20218;-83
2023/11/24 07:08:35;;;;;;;5.47;1.47;;;;;;;;;;4954571;28;20230;-80
2023/11/24 07:11:00;;;;;;;5.03;1.43;;;;;;;;;;4924620;28;20233;-79
2023/11/24 07:13:27;;;;;;;4.17;1.73;;;;;;;;;;4940336;28;20226;-81
2023/11/24 07:15:52;;;;;;;4.97;1.50;;;;;;;;;;4955000;28;20689;-81
2023/11/24 07:18:18;;;;;;;5.63;1.77;;;;;;;;;;4922260;28;20211;-81
2023/11/24 07:20:46;;;;;;;7.57;1.90;;;;;;;;;;4937116;28;20749;-79
2023/11/24 07:23:11;;;;;;;5.53;1.70;;;;;;;;;;4919831;28;20679;-80
2023/11/24 07:25:37;;;;;;;6.93;2.00;;;;;;;;;;4936738;28;20254;-80
2023/11/24 07:28:04;;;;;;;4.47;2.00;;;;;;;;;;4919348;28;20245;-81
2023/11/24 07:30:34;;;;;;;8.53;2.13;;;;;;;;;;4951918;28;20230;-80
2023/11/24 07:32:59;;;;;;;11.03;2.83;;;;;;;;;;4934365;28;20235;-80
2023/11/24 07:35:27;;;;;;;7.27;2.60;;;;;;;;;;4954874;28;20739;-80
2023/11/24 07:37:53;;;;;;;8.13;4.60;;;;;;;;;;4929435;28;20297;-80
2023/11/24 07:40:18;;;;;;;15.70;7.97;;;;;;;;;;4969988;28;20229;-83
2023/11/24 07:42:44;;;;;;;14.90;5.23;;;;;;;;;;4943475;28;20230;-80
2023/11/24 07:45:11;;;;;;;8.53;2.37;;;;;;;;;;4928299;28;20241;-80
2023/11/24 07:47:37;;;;;;;9.03;4.20;;;;;;;;;;4941612;28;20226;-80
2023/11/24 07:50:07;;;;;;;9.83;5.50;;;;;;;;;;4932210;28;20650;-81
2023/11/24 07:52:33;;;;;;;7.47;2.27;;;;;;;;;;4929274;28;20230;-80
2023/11/24 07:54:59;;;;;;;8.20;3.40;;;;;;;;;;4945273;28;20206;-80
2023/11/24 07:57:26;;;;;;;7.40;2.33;;;;;;;;;;4952779;28;20218;-81
2023/11/24 07:59:54;;;;;;;9.27;4.07;;;;;;;;;;4980533;28;20389;-82
2023/11/24 08:02:22;;;;;;;8.77;3.40;;;;;;;;;;4979289;28;20213;-81
2023/11/24 08:04:50;;;;;;;11.40;2.70;;;;;;;;;;4937852;28;20262;-79
2023/11/24 08:07:17;;;;;;;5.93;1.73;;;;;;;;;;4936355;28;20271;-82
2023/11/24 08:09:45;;;;;;;4.67;1.60;;;;;;;;;;4955412;28;20233;-80
2023/11/24 08:12:11;;;;;;;7.63;2.10;;;;;;;;;;4940580;28;20226;-81
2023/11/24 08:14:37;;;;;;;5.03;1.87;;;;;;;;;;4922393;28;20317;-80
2023/11/24 08:17:04;;;;;;;6.20;1.67;;;;;;;;;;4950351;28;20249;-78
2023/11/24 08:19:29;;;;;;;7.27;2.07;;;;;;;;;;4953895;28;20229;-80
2023/11/24 08:21:55;;;;;;;5.60;1.60;;;;;;;;;;4933952;28;20226;-78
2023/11/24 08:24:23;;;;;;;5.30;1.57;;;;;;;;;;4942081;28;20234;-79
2023/11/24 08:26:48;;;;;;;5.47;1.60;;;;;;;;;;4957498;28;20794;-80
2023/11/24 08:29:14;;;;;;;3.20;1.03;;;;;;;;;;4958127;28;20229;-80
2023/11/24 08:31:44;;;;;;;5.57;1.50;;;;;;;;;;4924964;28;20302;-80
2023/11/24 08:34:13;;;;;;;7.53;1.47;;;;;;;;;;4961042;28;20227;-79
2023/11/24 08:36:40;;;;;;;5.87;1.60;;;;;;;;;;4940366;28;20314;-80
2023/11/24 08:39:12;;;;;;;6.77;1.97;;;;;;;;;;4955319;28;20233;-79
2023/11/24 08:41:38;;;;;;;5.53;1.53;;;;;;;;;;4927481;28;20230;-79
2023/11/24 08:44:05;;;;;;;4.50;1.50;;;;;;;;;;4954190;28;20245;-78
2023/11/24 08:46:32;;;;;;;3.13;1.03;;;;;;;;;;4922826;28;20234;-78
2023/11/24 08:48:57;;;;;;;3.43;1.17;;;;;;;;;;4931970;28;20296;-77
2023/11/24 08:51:23;;;;;;;4.57;1.60;;;;;;;;;;4946038;28;20226;-78
2023/11/24 08:53:48;;;;;;;5.70;1.80;;;;;;;;;;4920715;28;20230;-80
2023/11/24 08:56:17;;;;;;;4.00;1.37;;;;;;;;;;4946589;28;20234;-81
2023/11/24 08:58:42;;;;;;;4.30;2.00;;;;;;;;;;4931396;28;20226;-83
2023/11/24 09:01:08;;;;;;;4.07;1.90;;;;;;;;;;4936413;28;20257;-79
2023/11/24 09:03:34;;;;;;;2.93;1.73;;;;;;;;;;4922863;28;20239;-80
2023/11/24 09:06:00;;;;;;;3.90;2.13;;;;;;;;;;4936599;28;20227;-79
2023/11/24 09:08:27;;;;;;;2.90;2.10;;;;;;;;;;4947076;28;20691;-79
2023/11/24 09:10:53;;;;;;;2.57;1.40;;;;;;;;;;4953819;28;20227;-80
2023/11/24 09:13:20;;;;;;;4.43;2.90;;;;;;;;;;4967174;28;20230;-79
2023/11/24 09:15:46;;;;;;;4.00;0.87;;;;;;;;;;4952684;28;20230;-80
2023/11/24 09:18:11;;;;;;;5.87;2.70;;;;;;;;;;4935735;28;20332;-80
2023/11/24 09:20:39;;;;;;;6.93;1.40;;;;;;;;;;4947833;28;20234;-79
2023/11/24 09:23:05;;;;;;;3.43;1.37;;;;;;;;;;4927945;28;20362;-79
2023/11/24 09:25:36;;;;;;;4.13;2.30;;;;;;;;;;4959423;28;20487;-79
2023/11/24 09:28:04;;;;;;;4.20;2.00;;;;;;;;;;4945924;28;20230;-79
2023/11/24 09:30:30;;;;;;;3.27;1.30;;;;;;;;;;4963525;28;20236;-78
2023/11/24 09:32:55;;;;;;;3.17;1.40;;;;;;;;;;4932391;28;20240;-77
2023/11/24 09:35:26;;;;;;;3.43;1.67;;;;;;;;;;4922372;28;20218;-79
2023/11/24 09:37:54;;;;;;;3.17;1.33;;;;;;;;;;4954212;28;20254;-79
2023/11/24 09:40:22;;;;;;;3.07;1.47;;;;;;;;;;4935906;28;20229;-78
2023/11/24 09:42:50;;;;;;;2.67;1.10;;;;;;;;;;4934700;28;20696;-77
2023/11/24 09:45:21;;;;;;;3.43;1.43;;;;;;;;;;4933672;28;20225;-77
2023/11/24 09:47:51;;;;;;;2.10;0.63;;;;;;;;;;4950719;28;20290;-77
2023/11/24 09:50:25;;;;;;;3.33;1.43;;;;;;;;;;4913949;28;20218;-80
2023/11/24 09:52:54;;;;;;;2.13;1.20;;;;;;;;;;4964822;28;20226;-79
2023/11/24 09:55:21;;;;;;;5.10;1.20;;;;;;;;;;4924846;28;20222;-77
2023/11/24 09:57:46;;;;;;;3.43;1.47;;;;;;;;;;4939714;28;20293;-80
2023/11/24 10:00:15;;;;;;;4.50;1.53;;;;;;;;;;4939329;28;20225;-83
2023/11/24 10:02:40;;;;;;;3.93;1.20;;;;;;;;;;4951801;28;20239;-79
2023/11/24 10:05:08;;;;;;;1.80;1.00;;;;;;;;;;4939229;28;20364;-82
2023/11/24 10:07:36;;;;;;;3.77;1.43;;;;;;;;;;4948743;28;20218;-78
2023/11/24 10:10:04;;;;;;;6.97;1.40;;;;;;;;;;4934054;28;20235;-78
2023/11/24 10:12:32;;;;;;;2.87;1.20;;;;;;;;;;4943089;28;20769;-78
2023/11/24 10:14:58;;;;;;;4.23;1.87;;;;;;;;;;4936775;28;20246;-79
2023/11/24 10:17:23;;;;;;;5.67;1.90;;;;;;;;;;4946726;28;20297;-80
2023/11/24 10:19:54;;;;;;;5.37;1.83;;;;;;;;;;4931535;28;20947;-78
2023/11/24 10:22:50;;;;;;;9.07;1.70;;;;;;;;;;4954193;28;20362;-79
2023/11/24 10:25:20;;;;;;;5.20;1.60;;;;;;;;;;4972398;28;20981;-80
2023/11/24 10:27:46;;;;;;;7.83;2.10;;;;;;;;;;4934462;28;20234;-78
2023/11/24 10:30:14;;;;;;;10.10;1.67;;;;;;;;;;4938000;28;20268;-80
2023/11/24 10:32:42;;;;;;;5.13;1.87;;;;;;;;;;4925032;28;20231;-80
2023/11/24 10:35:08;;;;;;;6.23;1.70;;;;;;;;;;4934533;28;20237;-80
2023/11/24 10:37:37;;;;;;;5.57;1.70;;;;;;;;;;4935548;28;20250;-80
2023/11/24 10:40:05;;;;;;;6.37;1.50;;;;;;;;;;4940249;28;20240;-79
2023/11/24 10:42:32;;;;;;;7.03;1.40;;;;;;;;;;4936001;28;20698;-76
2023/11/24 10:44:59;;;;;;;5.20;1.40;;;;;;;;;;4957479;28;20232;-77
2023/11/24 10:47:36;;;;;;;4.70;1.43;;;;;;;;;;4952533;28;20229;-78
2023/11/24 10:50:10;;;;;;;5.97;2.57;;;;;;;;;;4945030;28;20222;-78
2023/11/24 10:52:41;;;;;;;6.97;2.90;;;;;;;;;;4938700;28;20604;-80
2023/11/24 10:55:13;;;;;;;4.50;2.10;;;;;;;;;;4927414;28;20358;-79
2023/11/24 10:57:42;;;;;;;5.87;1.80;;;;;;;;;;4953417;28;20230;-80
2023/11/24 11:00:14;;;;;;;6.70;3.63;;;;;;;;;;4927238;28;20210;-78
2023/11/24 11:02:41;;;;;;;7.47;2.97;;;;;;;;;;4952764;28;20238;-78
2023/11/24 11:05:27;;;;;;;7.60;3.27;;;;;;;;;;4939778;28;20687;-79
2023/11/24 11:08:18;;;;;;;5.83;2.40;;;;;;;;;;4952080;28;20234;-80
2023/11/24 11:10:51;;;;;;;4.63;2.83;;;;;;;;;;4939979;28;20270;-80
2023/11/24 11:13:20;;;;;;;8.17;2.87;;;;;;;;;;4954975;28;20217;-79
2023/11/24 11:15:50;;;;;;;11.77;3.60;;;;;;;;;;4929405;28;20226;-78
2023/11/24 11:18:18;;;;;;;6.63;2.80;;;;;;;;;;4940657;28;20245;-79
2023/11/24 11:20:45;;;;;;;7.13;3.00;;;;;;;;;;4950505;28;20226;-80
2023/11/24 11:23:14;;;;;;;6.20;2.70;;;;;;;;;;4949041;28;20229;-78
2023/11/24 11:25:42;;;;;;;7.07;3.60;;;;;;;;;;4954188;28;20715;-80
2023/11/24 11:28:22;;;;;;;6.13;2.30;;;;;;;;;;4969104;28;20234;-78
2023/11/24 11:30:48;;;;;;;9.63;4.23;;;;;;;;;;4957634;28;20234;-90
2023/11/24 11:33:13;;;;;;;6.00;3.23;;;;;;;;;;4938145;28;20237;-85
2023/11/24 11:35:41;;;;;;;9.47;3.50;;;;;;;;;;4964858;28;20285;-85
2023/11/24 11:38:08;;;;;;;5.03;3.37;;;;;;;;;;4951545;28;20229;-87
2023/11/24 11:40:35;;;;;;;5.27;3.20;;;;;;;;;;4930014;28;20222;-86
2023/11/24 11:43:12;;;;;;;7.53;2.70;;;;;;;;;;4934242;28;20302;-86
2023/11/24 11:45:48;;;;;;;7.07;3.00;;;;;;;;;;4915584;28;20242;-85
2023/11/24 11:48:16;;;;;;;9.73;3.57;;;;;;;;;;4945250;28;20228;-85
2023/11/24 11:51:02;;;;;;;14.83;3.23;;;;;;;;;;4944741;28;20234;-83
2023/11/24 11:53:33;;;;;;;9.03;2.70;;;;;;;;;;4927299;28;20299;-84
2023/11/24 11:56:00;;;;;;;7.70;2.70;;;;;;;;;;4939017;28;20222;-84
2023/11/24 11:58:27;;;;;;;4.80;1.73;;;;;;;;;;4938416;28;20609;-85
2023/11/24 12:00:55;;;;;;;6.17;2.10;;;;;;;;;;4930440;28;20375;-85
2023/11/24 12:03:22;;;;;;;8.30;2.30;;;;;;;;;;4927502;28;20226;-84
2023/11/24 12:05:48;;;;;;;8.97;2.43;;;;;;;;;;4939595;28;20859;-83
2023/11/24 12:08:23;;;;;;;11.93;2.30;;;;;;;;;;4925811;28;20222;-88
2023/11/24 12:10:48;;;;;;;5.13;2.00;;;;;;;;;;4954143;28;20233;-85
2023/11/24 12:13:17;;;;;;;10.03;3.07;;;;;;;;;;4940227;28;20230;-87
2023/11/24 12:15:43;;;;;;;7.57;1.87;;;;;;;;;;4945475;28;21041;-86
2023/11/24 12:18:14;;;;;;;13.67;2.57;;;;;;;;;;4942120;28;20219;-87
2023/11/24 12:20:40;;;;;;;11.00;2.00;;;;;;;;;;4927016;28;20233;-85
2023/11/24 12:23:07;;;;;;;5.57;1.87;;;;;;;;;;4923470;28;20218;-87
2023/11/24 12:25:38;;;;;;;7.13;1.90;;;;;;;;;;4939205;28;20227;-87
2023/11/24 12:28:09;;;;;;;5.10;1.60;;;;;;;;;;4926841;28;20254;-84
2023/11/24 12:30:41;;;;;;;10.20;2.17;;;;;;;;;;4926690;28;20246;-84
2023/11/24 12:33:15;;;;;;;3.77;1.43;;;;;;;;;;4927501;28;20289;-87
2023/11/24 12:35:51;;;;;;;8.73;1.90;;;;;;;;;;4971067;28;20229;-86
2023/11/24 12:38:17;;;;;;;4.23;1.90;;;;;;;;;;4927496;28;20232;-86
2023/11/24 12:40:46;;;;;;;6.50;1.53;;;;;;;;;;4905040;28;20218;-88
2023/11/24 12:43:15;;;;;;;5.37;1.63;;;;;;;;;;4925532;28;20631;-88
2023/11/24 12:45:43;;;;;;;5.90;1.57;;;;;;;;;;4926126;28;20272;-87
2023/11/24 12:48:24;;;;;;;5.80;1.50;;;;;;;;;;4921480;28;20238;-85
2023/11/24 12:50:53;;;;;;;5.57;1.80;;;;;;;;;;4922718;28;20231;-86
2023/11/24 12:53:19;;;;;;;5.70;2.03;;;;;;;;;;4916162;28;20234;-83
2023/11/24 12:55:45;;;;;;;5.07;1.53;;;;;;;;;;4923074;28;20309;-87
2023/11/24 12:58:11;;;;;;;6.30;1.87;;;;;;;;;;4920799;28;20230;-86
2023/11/24 13:00:37;;;;;;;6.20;1.77;;;;;;;;;;4939113;28;20241;-85
2023/11/24 13:03:03;;;;;;;6.97;2.20;;;;;;;;;;4922973;28;20245;-85
2023/11/24 13:05:31;;;;;;;8.50;2.07;;;;;;;;;;4927968;28;20280;-85
2023/11/24 13:07:58;;;;;;;5.83;2.00;;;;;;;;;;4937841;28;20272;-85
2023/11/24 13:10:24;;;;;;;4.80;1.97;;;;;;;;;;4931342;28;20234;-86
2023/11/24 13:12:53;;;;;;;4.07;2.20;;;;;;;;;;4934856;28;20226;-82
2023/11/24 13:15:21;;;;;;;10.97;3.83;;;;;;;;;;4934327;28;20591;-86
2023/11/24 13:17:49;;;;;;;9.50;4.37;;;;;;;;;;4926770;28;20245;-85
2023/11/24 13:20:20;;;;;;;8.93;3.93;;;;;;;;;;4921911;28;20234;-85
2023/11/24 13:22:48;;;;;;;6.57;1.90;;;;;;;;;;4925093;28;20248;-86
2023/11/24 13:25:14;;;;;;;5.60;2.00;;;;;;;;;;4924398;28;20346;-85
2023/11/24 13:27:41;;;;;;;7.10;2.20;;;;;;;;;;4934915;28;20261;-83
2023/11/24 13:30:12;;;;;;;6.97;2.33;;;;;;;;;;4937800;28;20230;-83
2023/11/24 13:32:39;;;;;;;6.20;2.17;;;;;;;;;;4927489;28;20225;-84
2023/11/24 13:35:10;;;;;;;4.73;2.47;;;;;;;;;;4947442;28;20214;-84
2023/11/24 13:37:37;;;;;;;5.13;2.20;;;;;;;;;;4957374;28;20232;-84
2023/11/24 13:40:09;;;;;;;6.37;2.17;;;;;;;;;;4956008;28;20235;-86
2023/11/24 13:42:37;;;;;;;6.20;2.80;;;;;;;;;;4934900;28;20264;-85
2023/11/24 13:45:03;;;;;;;7.83;3.10;;;;;;;;;;4927213;28;20214;-86
2023/11/24 13:47:31;;;;;;;4.63;1.87;;;;;;;;;;4910602;28;20237;-85
2023/11/24 13:49:59;;;;;;;8.67;2.10;;;;;;;;;;4926173;28;20228;-86
2023/11/24 13:52:32;;;;;;;5.10;2.20;;;;;;;;;;4936355;28;20222;-86
2023/11/24 13:55:00;;;;;;;10.43;3.07;;;;;;;;;;4928270;28;20721;-87
2023/11/24 13:57:28;;;;;;;5.67;3.03;;;;;;;;;;4937034;28;20286;-87
2023/11/24 13:59:56;;;;;;;8.00;3.23;;;;;;;;;;4921090;28;20734;-86
2023/11/24 14:02:35;;;;;;;9.07;2.50;;;;;;;;;;4936517;28;20570;-86
2023/11/24 14:05:30;;;;;;;5.80;2.20;;;;;;;;;;4955289;28;20209;-87
2023/11/24 14:08:19;;;;;;;4.97;1.50;;;;;;;;;;4937088;28;20227;-88
2023/11/24 14:11:00;;;;;;;3.90;1.93;;;;;;;;;;4955140;28;20222;-88
2023/11/24 14:13:27;;;;;;;4.90;1.73;;;;;;;;;;4944637;28;20227;-86
2023/11/24 14:15:54;;;;;;;5.17;1.60;;;;;;;;;;4925585;28;20801;-86
2023/11/24 14:18:19;;;;;;;2.90;1.47;;;;;;;;;;4932136;28;20222;-86
2023/11/24 14:20:48;;;;;;;6.00;1.60;;;;;;;;;;4904693;28;20261;-85
2023/11/24 14:23:14;;;;;;;6.60;1.57;;;;;;;;;;4920727;28;20234;-87
2023/11/24 14:26:18;;;;;;;3.57;1.63;;;;;;;;;;4911154;28;20368;-88
2023/11/24 14:29:17;;;;;;;3.13;1.20;;;;;;;;;;4866507;29;20258;-88
2023/11/24 14:32:04;;;;;;;3.63;1.67;;;;;;;;;;4922107;28;20233;-87
2023/11/24 14:34:40;;;;;;;3.20;1.50;;;;;;;;;;4905548;29;20262;-87
2023/11/24 14:37:08;;;;;;;3.60;1.80;;;;;;;;;;4917034;28;20254;-86
2023/11/24 14:40:02;;;;;;;3.60;2.20;;;;;;;;;;4928531;28;20237;-85
2023/11/24 14:42:46;;;;;;;6.00;2.03;;;;;;;;;;4931444;28;20231;-87
2023/11/24 14:45:25;;;;;;;19.53;9.37;;;;;;;;;;4924589;28;20240;-87
2023/11/24 14:48:16;;;;;;;17.50;7.30;;;;;;;;;;4943750;28;20249;-87